New Shoreham, Rhode Island
Current Conditions -  °F | °C
As of 4:55 AM on Monday 22 Dec 2014 (Local Time) from KBID Reporting Station
Overcast Overcast  
Wind Chill: 34°   Ceiling: 4800
Heat Index: 39°   Visibility: 10mi
Dew Point: 34°   Wind: 7mph
Humidity: 81%   Direction: 30°NNE
Pressure: 30.31"   Gusts: NA
Location:  41.1768°N, 71.5785°W
Report Text: KBID 220955Z AUTO 03006KT 10SM FEW009 OVC048 04/01 A3031 RMK AO1
Loading
Personal Weather Stations






























Interactive Weather Map New forecast layout! Learn more

10-Day Weather Forecast

Advertisements
Track Severe Weather on mobile